NCAR-RAP Real-Time Weather Data

Output produced by METARs form (19 June 2019  11:56 UTC)
found at http://weather.rap.ucar.edu/surface/
 
KBFF 191153Z AUTO 20004KT 10SM CLR 12/ A2988 RMK AO2 SLP095 70001 T0122 10128 20106 58012 $
KBFF 191053Z AUTO 26004KT 9SM CLR 11/11 A2991 RMK AO2 SLP108 T01060106 $
KBFF 191031Z AUTO 30003KT 6SM BR SCT001 11/11 A2992 RMK AO2 T01060106 $
KBFF 191018Z AUTO 31004KT 5SM BR BKN001 11/11 A2992 RMK AO2 T01110111 $
KBFF 191011Z AUTO 31005KT 2 1/2SM BR OVC001 12/12 A2992 RMK AO2 T01170117 $
KBFF 191004Z AUTO 29004KT 2SM BR OVC002 12/12 A2992 RMK AO2 T01170117 $
KBFF 190953Z AUTO 29007KT 1SM BR VV002 12/12 A2993 RMK AO2 SLP103 T01170117 $
KBFF 190938Z AUTO 29008KT 3/4SM BR VV002 12/12 A2992 RMK AO2 T01170117 $
KBFF 190934Z AUTO 28009KT 1 3/4SM BR SCT001 12/12 A2992 RMK AO2 T01170117 $
KBFF 190921Z AUTO 29004KT 7SM SCT001 11/11 A2991 RMK AO2 T01110111 $
KBFF 190916Z AUTO 29005KT 2 1/2SM BR BKN001 11/11 A2992 RMK AO2 T01110111 $
KBFF 190912Z AUTO 29005KT 3/4SM BR VV001 12/12 A2992 RMK AO2 T01170117 $
KBFF 190853Z AUTO 30006KT 1/4SM FG VV001 12/12 A2993 RMK AO2 SLP102 T01170117 57005 $
KBFF 190753Z AUTO 21004KT 1/4SM FG VV001 12/12 A2993 RMK AO2 SLP100 T01220122 $
KBFF 190743Z AUTO 22003KT 1/4SM FG VV001 12/12 A2993 RMK AO2 T01220122 $
KBFF 190710Z AUTO 00000KT 1/2SM FG VV002 11/11 A2994 RMK AO2 T01110111 $
KBFF 190703Z AUTO 00000KT 1/4SM FG VV001 11/11 A2994 RMK AO2 T01110111 $
KBFF 190658Z AUTO 00000KT 1SM BR VV001 11/11 A2994 RMK AO2 T01110111 $
KBFF 190653Z AUTO 00000KT 2SM BR CLR 12/12 A2994 RMK AO2 SLP109 T01170117 402280117 $
KBFF 190651Z AUTO 00000KT 1 3/4SM BR CLR 12/ A2994 RMK AO2 $
KBFF 190632Z AUTO 00000KT 2 1/2SM BR SCT001 12/12 A2995 RMK AO2 T01170117 $
KBFF 190617Z AUTO 00000KT 1 3/4SM BR BKN001 12/12 A2995 RMK AO2 T01220122 $
KBFF 190607Z AUTO 05003KT 1/2SM FG VV001 12/12 A2995 RMK AO2 T01220122 $
KBFF 190553Z AUTO 00000KT 1/4SM FG VV001 13/13 A2995 RMK AO2 SLP112 60000 T01280128 10167 20122 58002 $
KBFF 190545Z AUTO 07004KT 1/4SM FG VV001 13/13 A2996 RMK AO2 T01280128 $
KBFF 190539Z AUTO 07005KT 1SM BR VV001 12/ A2995 RMK AO2 T0122 $
KBFF 190537Z AUTO 07005KT 2SM BR SCT001 12/ A2995 RMK AO2 T0122 $
KBFF 190453Z AUTO 10005KT 10SM CLR 13/ A2996 RMK AO2 SLP115 T0128 $
KBFF 190353Z AUTO 11003KT 10SM CLR 13/13 A2996 RMK AO2 SLP117 T01330133 $
KBFF 190253Z AUTO 15003KT 10SM SCT110 14/13 A2996 RMK AO2 SLP117 60000 T01440133 56007
KBFF 190153Z AUTO 18005KT 10SM CLR 15/14 A2997 RMK AO2 SLP119 T01500139
KBFF 190053Z AUTO 12012KT 10SM SCT095 17/15 A2997 RMK AO2 RAE01 SLP120 P0000 T01670150
KBFF 182353Z AUTO 03010KT 10SM -RA OVC080 16/15 A2998 RMK AO2 LTG DSNT E AND SE RAE2254B21 SLP127 P0001 60001 T01560150 10228 20156 53002
KBFF 182312Z AUTO 02020G24KT 10SM SCT034 BKN050 OVC090 16/13 A2997 RMK AO2 LTG DSNT NE-SE RAE2254 P0000 T01610133
KBFF 182253Z AUTO 02014G21KT 10SM VCTS -RA FEW029 OVC035 16/13 A2998 RMK AO2 WSHFT 2225 LTG DSNT ALQDS RAB05E15B36 SLP127 P0000 T01610133
KBFF 182245Z AUTO 36016G22KT 10SM -RA BKN033 OVC075 16/13 A2999 RMK AO2 WSHFT 2225 LTG DSNT NE AND SE AND SW RAB05E15B36 P0000 T01610128
KBFF 182153Z AUTO 17006KT 10SM FEW034 BKN095 21/15 A2997 RMK AO2 LTG DSNT N AND NW SLP117 T02060150
KBFF 182053Z AUTO 14007KT 10SM FEW034 22/16 A2998 RMK AO2 LTG DSNT N SLP118 T02170156 56021
KBFF 181953Z AUTO VRB05KT 10SM FEW029 FEW035 BKN065 22/16 A2999 RMK AO2 SLP123 T02170156
KBFF 181853Z AUTO 15008KT 10SM FEW030 SCT065 21/14 A3002 RMK AO2 SLP131 T02060144
KBFF 181753Z AUTO 15005KT 10SM FEW027 SCT048 20/15 A3005 RMK AO2 SLP141 T02000150 10200 20133 58007
KBFF 181706Z AUTO VRB06KT 10SM SCT017 BKN034 OVC041 18/15 A3006 RMK AO2 T01830150
KBFF 181653Z AUTO VRB06KT 10SM SCT017 BKN025 OVC035 19/16 A3006 RMK AO2 SLP147 T01890156
KBFF 181633Z AUTO 14006KT 10SM SCT016 BKN027 OVC035 18/15 A3006 RMK AO2 T01780150
KBFF 181603Z AUTO 13005KT 10SM SCT013 OVC033 18/15 A3007 RMK AO2 T01780150